createdAt,value
2023-04-16T00:00:19.816Z,0.95
2023-04-16T00:02:46.506Z,1.58
2023-04-16T00:05:14.471Z,1.10
2023-04-16T00:07:41.125Z,0.80
2023-04-16T00:10:08.079Z,1.10
2023-04-16T00:12:34.557Z,0.88
2023-04-16T00:15:01.081Z,0.80
2023-04-16T00:17:27.655Z,1.08
2023-04-16T00:19:54.120Z,0.47
2023-04-16T00:22:20.636Z,0.60
2023-04-16T00:24:47.141Z,0.73
2023-04-16T00:27:13.698Z,0.73
2023-04-16T00:29:40.231Z,0.75
2023-04-16T00:32:07.600Z,0.95
2023-04-16T00:34:34.146Z,0.50
2023-04-16T00:37:00.887Z,0.60
2023-04-16T00:39:27.441Z,0.70
2023-04-16T00:41:53.957Z,0.77
2023-04-16T00:44:20.412Z,0.60
2023-04-16T00:46:47.596Z,1.10
2023-04-16T00:49:14.672Z,0.90
2023-04-16T00:51:41.458Z,1.05
2023-04-16T00:54:08.034Z,1.13
2023-04-16T00:56:35.589Z,1.20
2023-04-16T00:59:02.513Z,1.53
2023-04-16T01:01:29.029Z,1.50
2023-04-16T01:03:56.863Z,1.13
2023-04-16T01:06:23.499Z,1.30
2023-04-16T01:08:50.009Z,1.35
2023-04-16T01:11:16.531Z,1.10
2023-04-16T01:13:43.148Z,0.95
2023-04-16T01:16:12.021Z,0.90
2023-04-16T01:18:39.495Z,1.67
2023-04-16T01:21:06.615Z,1.15
2023-04-16T01:23:33.106Z,1.10
2023-04-16T01:25:59.663Z,1.05
2023-04-16T01:28:26.628Z,1.25
2023-04-16T01:30:53.142Z,1.33
2023-04-16T01:33:19.731Z,1.67
2023-04-16T01:35:46.200Z,1.90
2023-04-16T01:38:12.777Z,1.50
2023-04-16T01:40:39.351Z,1.63
2023-04-16T01:43:05.891Z,1.67
2023-04-16T01:45:33.955Z,1.60
2023-04-16T01:48:00.842Z,1.40
2023-04-16T01:50:28.274Z,1.90
2023-04-16T01:52:54.727Z,2.28
2023-04-16T01:55:21.335Z,1.70
2023-04-16T01:57:47.962Z,1.58
2023-04-16T02:00:14.751Z,1.93
2023-04-16T02:02:41.536Z,2.15
2023-04-16T02:05:08.358Z,2.40
2023-04-16T02:07:34.833Z,2.20
2023-04-16T02:10:01.406Z,2.55
2023-04-16T02:12:28.056Z,3.03
2023-04-16T02:14:54.585Z,3.00
2023-04-16T02:17:21.366Z,2.97
2023-04-16T02:19:48.393Z,3.20
2023-04-16T02:22:14.891Z,3.10
2023-04-16T02:24:41.419Z,3.30
2023-04-16T02:27:07.944Z,3.08
2023-04-16T02:29:34.605Z,3.17
2023-04-16T02:32:01.226Z,3.65
2023-04-16T02:34:27.822Z,3.03
2023-04-16T02:36:55.055Z,3.23
2023-04-16T02:39:22.117Z,2.88
2023-04-16T02:41:48.621Z,3.30
2023-04-16T02:44:15.652Z,3.47
2023-04-16T02:46:42.117Z,3.22
2023-04-16T02:49:08.780Z,3.30
2023-04-16T02:51:35.461Z,3.10
2023-04-16T02:54:03.120Z,3.28
2023-04-16T02:56:29.673Z,3.80
2023-04-16T02:58:56.419Z,4.22
2023-04-16T03:01:22.936Z,3.57
2023-04-16T03:03:49.462Z,3.88
2023-04-16T03:06:16.178Z,4.28
2023-04-16T03:08:42.609Z,3.78
2023-04-16T03:11:09.136Z,4.20
2023-04-16T03:13:36.336Z,4.00
2023-04-16T03:16:03.021Z,4.70
2023-04-16T03:18:29.685Z,4.40
2023-04-16T03:20:56.171Z,4.40
2023-04-16T03:23:22.674Z,4.47
2023-04-16T03:25:49.123Z,4.20
2023-04-16T03:28:15.682Z,4.78
2023-04-16T03:30:42.228Z,4.30
2023-04-16T03:33:08.681Z,4.03
2023-04-16T03:35:35.403Z,4.63
2023-04-16T03:38:01.906Z,4.40
2023-04-16T03:40:28.380Z,3.40
2023-04-16T03:42:54.849Z,4.15
2023-04-16T03:45:21.345Z,4.30
2023-04-16T03:47:52.488Z,4.03
2023-04-16T03:50:19.634Z,4.17
2023-04-16T03:52:46.976Z,4.30
2023-04-16T03:55:13.933Z,4.07
2023-04-16T03:57:41.613Z,4.35
2023-04-16T04:00:09.096Z,4.18
2023-04-16T04:02:35.799Z,3.93
2023-04-16T04:05:02.554Z,4.03
2023-04-16T04:07:29.362Z,4.15
2023-04-16T04:09:55.842Z,5.25
2023-04-16T04:12:22.308Z,4.45
2023-04-16T04:14:48.762Z,4.10
2023-04-16T04:17:15.563Z,4.90
2023-04-16T04:19:47.023Z,4.28
2023-04-16T04:22:17.340Z,4.82
2023-04-16T04:24:43.843Z,5.25
2023-04-16T04:27:10.482Z,5.00
2023-04-16T04:29:36.951Z,4.95
2023-04-16T04:32:03.506Z,4.18
2023-04-16T04:34:30.072Z,4.70
2023-04-16T04:36:56.737Z,4.40
2023-04-16T04:39:23.422Z,4.70
2023-04-16T04:41:49.925Z,4.50
2023-04-16T04:44:16.446Z,4.10
2023-04-16T04:46:42.886Z,4.43
2023-04-16T04:49:09.705Z,5.45
2023-04-16T04:51:36.401Z,4.50
2023-04-16T04:54:02.909Z,4.40
2023-04-16T04:56:29.418Z,4.45
2023-04-16T04:58:56.234Z,4.50
2023-04-16T05:01:22.764Z,4.22
2023-04-16T05:03:49.345Z,4.20
2023-04-16T05:06:16.463Z,4.50
2023-04-16T05:08:42.985Z,4.80
2023-04-16T05:11:09.516Z,4.75
2023-04-16T05:13:36.018Z,4.63
2023-04-16T05:16:02.618Z,4.60
2023-04-16T05:18:29.087Z,4.93
2023-04-16T05:20:55.944Z,4.63
2023-04-16T05:23:22.449Z,4.93
2023-04-16T05:25:48.896Z,4.60
2023-04-16T05:28:15.389Z,4.17
2023-04-16T05:30:41.962Z,4.90
2023-04-16T05:33:08.516Z,4.28
2023-04-16T05:35:35.162Z,4.70
2023-04-16T05:38:01.661Z,4.70
2023-04-16T05:40:28.177Z,5.40
2023-04-16T05:42:54.667Z,5.45
2023-04-16T05:45:21.199Z,4.90
2023-04-16T05:47:47.810Z,5.30
2023-04-16T05:50:14.403Z,5.00
2023-04-16T05:52:40.823Z,5.00
2023-04-16T05:55:07.547Z,4.90
2023-04-16T05:57:34.069Z,5.93
2023-04-16T06:00:00.562Z,4.72
2023-04-16T06:02:27.202Z,5.60
2023-04-16T06:04:53.790Z,4.60
2023-04-16T06:07:20.244Z,5.03
2023-04-16T06:09:46.754Z,4.63
2023-04-16T06:12:13.315Z,4.90
2023-04-16T06:14:39.848Z,5.65
2023-04-16T06:17:06.396Z,5.07
2023-04-16T06:19:32.839Z,4.93
2023-04-16T06:21:59.486Z,4.72
2023-04-16T06:24:26.035Z,5.05
2023-04-16T06:26:52.884Z,5.47
2023-04-16T06:29:19.348Z,5.77
2023-04-16T06:31:45.936Z,6.28
2023-04-16T06:34:12.470Z,5.00
2023-04-16T06:36:38.915Z,5.18
2023-04-16T06:39:05.464Z,6.30
2023-04-16T06:41:32.053Z,5.80
2023-04-16T06:43:58.535Z,6.63
2023-04-16T06:46:25.141Z,6.10
2023-04-16T06:48:51.831Z,6.13
2023-04-16T06:51:18.362Z,5.93
2023-04-16T06:53:45.019Z,6.10
2023-04-16T06:56:11.525Z,6.63
2023-04-16T06:58:37.991Z,5.88
2023-04-16T07:01:05.659Z,5.63
2023-04-16T07:03:32.544Z,6.28
2023-04-16T07:05:59.114Z,6.07
2023-04-16T07:08:25.866Z,5.78
2023-04-16T07:10:53.992Z,6.88
2023-04-16T07:13:21.630Z,7.45
2023-04-16T07:15:48.287Z,7.30
2023-04-16T07:18:14.870Z,7.77
2023-04-16T07:20:41.447Z,6.40
2023-04-16T07:23:07.995Z,6.85
2023-04-16T07:25:34.471Z,6.88
2023-04-16T07:28:01.014Z,6.30
2023-04-16T07:30:33.958Z,6.17
2023-04-16T07:33:02.679Z,6.45
2023-04-16T07:35:29.480Z,5.85
2023-04-16T07:37:55.961Z,5.75
2023-04-16T07:40:23.826Z,5.60
2023-04-16T07:42:50.892Z,5.90
2023-04-16T07:45:18.190Z,5.85
2023-04-16T07:47:45.809Z,6.32
2023-04-16T07:50:12.884Z,5.63
2023-04-16T07:52:44.189Z,5.63
2023-04-16T07:55:10.819Z,5.87
2023-04-16T07:57:37.438Z,4.97
2023-04-16T08:00:05.067Z,5.03
2023-04-16T08:02:32.014Z,4.95
2023-04-16T08:04:59.113Z,5.38
2023-04-16T08:07:25.693Z,5.27
2023-04-16T08:09:52.622Z,4.85
2023-04-16T08:12:19.657Z,4.13
2023-04-16T08:14:46.432Z,4.13
2023-04-16T08:17:13.846Z,3.90
2023-04-16T08:19:40.375Z,4.30
2023-04-16T08:22:06.899Z,4.20
2023-04-16T08:24:33.357Z,4.05
2023-04-16T08:27:11.249Z,4.05
2023-04-16T08:29:44.539Z,3.60
2023-04-16T08:32:11.600Z,3.37
2023-04-16T08:34:38.187Z,3.78
2023-04-16T08:37:04.671Z,4.10
2023-04-16T08:39:31.326Z,3.95
2023-04-16T08:41:58.892Z,3.50
2023-04-16T08:44:28.388Z,4.37
2023-04-16T08:46:58.270Z,3.55
2023-04-16T08:49:28.481Z,3.30
2023-04-16T08:51:56.267Z,3.28
2023-04-16T08:54:32.396Z,3.20
2023-04-16T08:57:02.263Z,2.90
2023-04-16T08:59:29.577Z,2.92
2023-04-16T09:02:00.583Z,3.10
2023-04-16T09:04:30.786Z,3.20
2023-04-16T09:06:58.851Z,2.78
2023-04-16T09:09:28.800Z,3.17
2023-04-16T09:11:56.180Z,3.15
2023-04-16T09:14:22.703Z,2.80
2023-04-16T09:16:49.487Z,3.50
2023-04-16T09:19:16.213Z,2.63
2023-04-16T09:21:46.939Z,2.90
2023-04-16T09:24:13.657Z,2.88
2023-04-16T09:26:43.340Z,3.00
2023-04-16T09:29:10.260Z,2.80
2023-04-16T09:31:37.292Z,2.97
2023-04-16T09:34:09.119Z,2.63
2023-04-16T09:36:36.769Z,3.25
2023-04-16T09:39:04.184Z,3.00
2023-04-16T09:41:33.184Z,3.45
2023-04-16T09:44:02.035Z,3.10
2023-04-16T09:46:34.933Z,3.53
2023-04-16T09:49:14.887Z,3.75
2023-04-16T09:51:42.666Z,3.10
2023-04-16T09:54:09.790Z,3.35
2023-04-16T09:56:43.961Z,3.67
2023-04-16T09:59:20.979Z,3.87
2023-04-16T10:01:49.583Z,3.92
2023-04-16T10:04:16.711Z,3.72
2023-04-16T10:06:43.478Z,4.10
2023-04-16T10:09:10.880Z,3.72
2023-04-16T10:11:37.879Z,3.30
2023-04-16T10:14:04.362Z,3.70
2023-04-16T10:16:31.076Z,3.50
2023-04-16T10:18:59.146Z,5.05
2023-04-16T10:21:33.040Z,5.10
2023-04-16T10:24:00.444Z,4.97
2023-04-16T10:26:28.510Z,5.15
2023-04-16T10:28:55.803Z,4.97
2023-04-16T10:31:23.118Z,5.35
2023-04-16T10:33:50.147Z,5.13
2023-04-16T10:36:23.834Z,5.17
2023-04-16T10:38:54.490Z,5.13
2023-04-16T10:41:21.168Z,4.78
2023-04-16T10:43:51.260Z,4.45
2023-04-16T10:46:31.886Z,4.75
2023-04-16T10:49:11.953Z,5.37
2023-04-16T10:51:38.700Z,5.13
2023-04-16T10:54:08.112Z,4.78
2023-04-16T10:56:36.182Z,5.65
2023-04-16T10:59:13.336Z,5.85
2023-04-16T11:01:44.743Z,5.50
2023-04-16T11:04:20.447Z,6.68
2023-04-16T11:07:11.587Z,5.43
2023-04-16T11:09:53.124Z,6.15
2023-04-16T11:12:21.172Z,5.90
2023-04-16T11:14:52.950Z,5.27
2023-04-16T11:17:20.835Z,5.57
2023-04-16T11:19:48.129Z,5.70
2023-04-16T11:22:17.306Z,5.70
2023-04-16T11:24:45.633Z,5.43
2023-04-16T11:27:13.952Z,5.03
2023-04-16T11:29:40.598Z,4.78
2023-04-16T11:32:07.298Z,5.28
2023-04-16T11:34:33.899Z,5.53
2023-04-16T11:37:00.592Z,5.15
2023-04-16T11:39:27.208Z,6.23
2023-04-16T11:41:53.701Z,5.45
2023-04-16T11:44:22.795Z,6.18
2023-04-16T11:46:50.622Z,6.50
2023-04-16T11:49:20.166Z,6.10
2023-04-16T11:51:47.466Z,5.93
2023-04-16T11:54:21.201Z,5.97
2023-04-16T11:56:49.809Z,5.63
2023-04-16T11:59:16.551Z,5.55
2023-04-16T12:01:49.628Z,5.70
2023-04-16T12:04:19.155Z,5.07
2023-04-16T12:07:05.323Z,5.38
2023-04-16T12:09:31.820Z,5.25
2023-04-16T12:11:58.350Z,5.35
2023-04-16T12:14:24.857Z,5.70
2023-04-16T12:16:51.468Z,5.03
2023-04-16T12:19:18.363Z,4.78
2023-04-16T12:21:46.762Z,5.05
2023-04-16T12:24:15.982Z,4.97
2023-04-16T12:26:45.426Z,5.10
2023-04-16T12:29:16.198Z,5.30
2023-04-16T12:31:43.114Z,4.95
2023-04-16T12:34:10.463Z,5.00
2023-04-16T12:36:37.897Z,4.80
2023-04-16T12:39:05.131Z,4.60
2023-04-16T12:41:31.724Z,4.47
2023-04-16T12:44:14.384Z,4.93
2023-04-16T12:46:42.310Z,3.83
2023-04-16T12:49:10.947Z,4.65
2023-04-16T12:51:38.649Z,4.75
2023-04-16T12:54:09.960Z,4.37
2023-04-16T12:56:36.525Z,4.97
2023-04-16T12:59:03.610Z,5.53
2023-04-16T13:01:30.501Z,5.53
2023-04-16T13:03:57.271Z,5.20
2023-04-16T13:06:24.348Z,5.63
2023-04-16T13:08:50.802Z,6.25
2023-04-16T13:11:17.473Z,5.93
2023-04-16T13:13:44.019Z,6.10
2023-04-16T13:16:11.522Z,6.28
2023-04-16T13:18:40.132Z,6.07
2023-04-16T13:21:06.994Z,6.18
2023-04-16T13:23:34.821Z,7.07
2023-04-16T13:26:01.398Z,6.28
2023-04-16T13:28:28.031Z,7.20
2023-04-16T13:30:54.763Z,6.53
2023-04-16T13:33:21.616Z,6.65
2023-04-16T13:35:49.859Z,7.15
2023-04-16T13:38:17.050Z,6.60
2023-04-16T13:40:43.927Z,6.43
2023-04-16T13:43:10.552Z,6.03
2023-04-16T13:45:38.056Z,6.30
2023-04-16T13:48:04.944Z,5.78
2023-04-16T13:50:31.557Z,6.05
2023-04-16T13:52:58.146Z,6.20
2023-04-16T13:55:34.365Z,5.57
2023-04-16T13:58:01.130Z,5.93
2023-04-16T14:00:27.792Z,5.63
2023-04-16T14:02:54.537Z,5.55
2023-04-16T14:05:23.752Z,5.63
2023-04-16T14:07:51.755Z,5.73
2023-04-16T14:10:18.639Z,5.22
2023-04-16T14:12:45.572Z,5.43
2023-04-16T14:15:14.647Z,5.30
2023-04-16T14:17:43.302Z,5.05
2023-04-16T14:20:13.929Z,5.00
2023-04-16T14:22:42.432Z,5.40
2023-04-16T14:25:09.204Z,4.93
2023-04-16T14:27:36.052Z,5.30
2023-04-16T14:30:02.681Z,4.68
2023-04-16T14:32:29.429Z,5.10
2023-04-16T14:34:56.200Z,5.15
2023-04-16T14:37:22.843Z,5.10
2023-04-16T14:39:50.485Z,5.28
2023-04-16T14:42:17.059Z,4.75
2023-04-16T14:44:43.590Z,4.73
2023-04-16T14:47:10.489Z,5.25
2023-04-16T14:49:37.016Z,5.50
2023-04-16T14:52:05.712Z,5.30
2023-04-16T14:54:33.479Z,5.13
2023-04-16T14:57:00.090Z,4.60
2023-04-16T14:59:26.630Z,5.85
2023-04-16T15:01:56.772Z,4.53
2023-04-16T15:04:24.604Z,5.30
2023-04-16T15:06:51.556Z,4.40
2023-04-16T15:09:18.057Z,5.23
2023-04-16T15:11:44.569Z,5.72
2023-04-16T15:14:11.388Z,4.80
2023-04-16T15:16:40.334Z,5.38
2023-04-16T15:19:06.940Z,5.30
2023-04-16T15:21:33.514Z,5.10
2023-04-16T15:23:59.979Z,5.47
2023-04-16T15:26:26.516Z,5.57
2023-04-16T15:28:53.026Z,5.90
2023-04-16T15:31:21.014Z,5.55
2023-04-16T15:33:48.640Z,5.97
2023-04-16T15:36:15.557Z,6.32
2023-04-16T15:38:42.083Z,6.50
2023-04-16T15:41:09.570Z,5.85
2023-04-16T15:43:36.067Z,6.28
2023-04-16T15:46:02.734Z,6.37
2023-04-16T15:48:29.410Z,7.03
2023-04-16T15:50:56.041Z,6.32
2023-04-16T15:53:22.736Z,6.45
2023-04-16T15:55:53.812Z,7.28
2023-04-16T15:58:21.026Z,6.10
2023-04-16T16:00:50.725Z,6.40
2023-04-16T16:03:20.663Z,6.18
2023-04-16T16:05:48.151Z,6.40
2023-04-16T16:08:15.732Z,5.65
2023-04-16T16:10:42.514Z,6.07
2023-04-16T16:13:13.082Z,6.72
2023-04-16T16:15:43.044Z,6.72
2023-04-16T16:18:10.022Z,6.90
2023-04-16T16:20:36.685Z,6.20
2023-04-16T16:23:03.514Z,6.37
2023-04-16T16:25:30.441Z,6.28
2023-04-16T16:27:57.176Z,6.65
2023-04-16T16:30:23.674Z,6.45
2023-04-16T16:32:50.821Z,7.50
2023-04-16T16:35:17.376Z,6.37
2023-04-16T16:37:43.925Z,6.63
2023-04-16T16:40:11.206Z,6.10
2023-04-16T16:42:37.816Z,6.40
2023-04-16T16:45:06.039Z,6.70
2023-04-16T16:47:33.057Z,6.97
2023-04-16T16:50:01.417Z,6.45
2023-04-16T16:52:29.327Z,6.65
2023-04-16T16:54:56.896Z,7.00
2023-04-16T16:57:24.098Z,7.10
2023-04-16T16:59:51.048Z,6.93
2023-04-16T17:02:18.379Z,6.93
2023-04-16T17:04:45.043Z,6.43
2023-04-16T17:07:11.905Z,6.55
2023-04-16T17:09:38.972Z,6.93
2023-04-16T17:12:06.129Z,6.93
2023-04-16T17:14:33.062Z,6.97
2023-04-16T17:16:59.759Z,6.68
2023-04-16T17:19:27.443Z,6.95
2023-04-16T17:21:54.105Z,7.15
2023-04-16T17:24:20.712Z,7.27
2023-04-16T17:26:47.228Z,6.40
2023-04-16T17:29:13.764Z,7.15
2023-04-16T17:31:40.453Z,7.15
2023-04-16T17:34:06.975Z,7.80
2023-04-16T17:36:33.524Z,7.37
2023-04-16T17:39:00.044Z,6.78
2023-04-16T17:41:26.504Z,6.70
2023-04-16T17:43:53.103Z,6.85
2023-04-16T17:46:19.641Z,7.53
2023-04-16T17:48:47.909Z,6.50
2023-04-16T17:51:16.420Z,7.28
2023-04-16T17:53:43.603Z,6.57
2023-04-16T17:56:13.220Z,7.03
2023-04-16T17:58:39.998Z,6.53
2023-04-16T18:01:06.645Z,7.87
2023-04-16T18:03:33.317Z,7.32
2023-04-16T18:06:00.255Z,7.65
2023-04-16T18:08:26.915Z,7.88
2023-04-16T18:10:55.120Z,7.72
2023-04-16T18:13:21.658Z,7.30
2023-04-16T18:15:48.366Z,7.15
2023-04-16T18:18:15.014Z,7.50
2023-04-16T18:20:41.645Z,7.50
2023-04-16T18:23:08.174Z,8.40
2023-04-16T18:25:35.382Z,8.20
2023-04-16T18:28:03.591Z,8.45
2023-04-16T18:30:30.437Z,7.80
2023-04-16T18:33:25.343Z,8.25
2023-04-16T18:35:43.464Z,8.52
2023-04-16T18:38:09.978Z,8.30
2023-04-16T18:40:37.285Z,8.77
2023-04-16T18:43:04.143Z,9.25
2023-04-16T18:45:30.885Z,8.38
2023-04-16T18:48:02.815Z,8.68
2023-04-16T18:50:29.811Z,9.50
2023-04-16T18:52:56.321Z,9.02
2023-04-16T18:55:22.942Z,9.40
2023-04-16T18:57:49.798Z,9.38
2023-04-16T19:00:16.612Z,9.98
2023-04-16T19:02:43.231Z,9.17
2023-04-16T19:05:10.027Z,9.90
2023-04-16T19:07:37.598Z,9.40
2023-04-16T19:10:05.264Z,9.18
2023-04-16T19:12:32.437Z,9.60
2023-04-16T19:14:59.251Z,8.83
2023-04-16T19:17:26.554Z,8.80
2023-04-16T19:19:53.367Z,8.82
2023-04-16T19:22:19.892Z,9.85
2023-04-16T19:24:46.717Z,9.15
2023-04-16T19:27:13.363Z,9.10
2023-04-16T19:29:40.889Z,8.75
2023-04-16T19:32:07.471Z,9.35
2023-04-16T19:34:35.021Z,9.25
2023-04-16T19:37:01.813Z,8.95
2023-04-16T19:39:28.429Z,8.67
2023-04-16T19:41:54.959Z,9.63
2023-04-16T19:44:23.164Z,8.55
2023-04-16T19:46:49.808Z,8.88
2023-04-16T19:49:16.435Z,9.05
2023-04-16T19:51:43.149Z,9.53
2023-04-16T19:54:09.844Z,9.40
2023-04-16T19:56:38.980Z,9.52
2023-04-16T19:59:05.525Z,9.23
2023-04-16T20:01:32.298Z,10.02
2023-04-16T20:03:58.944Z,8.77
2023-04-16T20:06:26.295Z,9.55
2023-04-16T20:08:56.734Z,9.13
2023-04-16T20:11:25.323Z,9.95
2023-04-16T20:13:51.958Z,9.75
2023-04-16T20:16:23.780Z,9.80
2023-04-16T20:18:54.117Z,9.50
2023-04-16T20:21:21.658Z,9.52
2023-04-16T20:23:48.551Z,10.25
2023-04-16T20:26:16.705Z,9.82
2023-04-16T20:28:43.271Z,10.03
2023-04-16T20:31:09.908Z,9.40
2023-04-16T20:33:36.480Z,10.40
2023-04-16T20:36:02.982Z,10.38
2023-04-16T20:38:32.158Z,10.70
2023-04-16T20:41:12.135Z,9.70
2023-04-16T20:43:41.339Z,10.30
2023-04-16T20:46:08.645Z,11.75
2023-04-16T20:48:35.293Z,10.27
2023-04-16T20:51:03.899Z,10.05
2023-04-16T20:53:32.081Z,11.33
2023-04-16T20:56:02.520Z,10.45
2023-04-16T20:58:29.697Z,10.50
2023-04-16T21:00:57.409Z,11.07
2023-04-16T21:03:24.739Z,10.48
2023-04-16T21:05:55.827Z,10.60
2023-04-16T21:08:23.461Z,11.70
2023-04-16T21:10:50.530Z,11.00
2023-04-16T21:13:17.323Z,11.32
2023-04-16T21:15:45.538Z,11.43
2023-04-16T21:18:12.987Z,11.07
2023-04-16T21:20:39.865Z,11.18
2023-04-16T21:23:06.784Z,11.57
2023-04-16T21:25:33.570Z,11.63
2023-04-16T21:28:00.152Z,11.10
2023-04-16T21:30:27.097Z,11.77
2023-04-16T21:32:53.599Z,10.30
2023-04-16T21:35:20.225Z,10.65
2023-04-16T21:37:46.744Z,11.52
2023-04-16T21:40:13.461Z,9.93
2023-04-16T21:42:42.093Z,11.20
2023-04-16T21:45:09.538Z,10.18
2023-04-16T21:47:37.054Z,9.77
2023-04-16T21:50:04.158Z,9.95
2023-04-16T21:52:32.806Z,9.50
2023-04-16T21:55:00.210Z,9.37
2023-04-16T21:57:26.769Z,8.60
2023-04-16T21:59:53.435Z,10.45
2023-04-16T22:02:20.058Z,9.95
2023-04-16T22:04:46.917Z,10.20
2023-04-16T22:07:13.481Z,10.23
2023-04-16T22:09:40.795Z,10.73
2023-04-16T22:12:10.259Z,10.43
2023-04-16T22:14:42.065Z,11.32
2023-04-16T22:17:12.888Z,10.65
2023-04-16T22:19:39.482Z,11.77
2023-04-16T22:22:05.987Z,11.13
2023-04-16T22:24:32.566Z,11.23
2023-04-16T22:26:59.168Z,10.70
2023-04-16T22:29:25.868Z,11.18
2023-04-16T22:31:52.538Z,12.17
2023-04-16T22:34:19.078Z,11.48
2023-04-16T22:36:45.997Z,10.48
2023-04-16T22:39:12.599Z,12.32
2023-04-16T22:41:39.207Z,10.05
2023-04-16T22:44:05.858Z,12.13
2023-04-16T22:46:32.593Z,12.25
2023-04-16T22:48:59.209Z,11.60
2023-04-16T22:51:25.681Z,11.88
2023-04-16T22:53:52.284Z,12.23
2023-04-16T22:56:19.572Z,11.67
2023-04-16T22:58:46.500Z,12.25
2023-04-16T23:01:13.132Z,11.70
2023-04-16T23:03:39.694Z,12.77
2023-04-16T23:06:06.694Z,10.98
2023-04-16T23:08:33.274Z,11.60
2023-04-16T23:10:59.825Z,11.65
2023-04-16T23:13:26.307Z,12.27
2023-04-16T23:15:52.915Z,12.30
2023-04-16T23:18:19.529Z,12.35
2023-04-16T23:20:45.995Z,12.70
2023-04-16T23:23:12.506Z,11.95
2023-04-16T23:25:41.211Z,12.45
2023-04-16T23:28:07.706Z,11.15
2023-04-16T23:30:34.141Z,12.38
2023-04-16T23:33:00.724Z,12.07
2023-04-16T23:35:27.199Z,12.10
2023-04-16T23:37:53.782Z,11.48
2023-04-16T23:40:20.616Z,11.52
2023-04-16T23:42:47.127Z,12.70
2023-04-16T23:45:13.619Z,12.30
2023-04-16T23:47:40.279Z,11.80
2023-04-16T23:50:07.309Z,12.95
2023-04-16T23:52:33.992Z,11.95
2023-04-16T23:55:00.742Z,12.10
2023-04-16T23:57:27.190Z,12.13
2023-04-16T23:59:53.705Z,12.52
